WetterOnline ( https://www.wetteronline.de )

Wetter aktuell Umeå

Aktuelles Wetter: Jarnasklubb (7m)

6-stündlich | Neueste Meldungen
Ortszeit Temperatur Wetter
Di, 31.01. 19:00 -3.1° C leicht bewölkt
Di, 31.01. 13:00 -1.5° C wolkenlos
Di, 31.01. 7:00 -3.4° C wolkenlos
Di, 31.01. 1:00 -2.4° C wolkenlos
Mo, 30.01. 19:00 -1.3° C wolkenlos
Mo, 30.01. 13:00 -0.7° C bedeckt
Mo, 30.01. 7:00 0.2° C bedeckt
Mo, 30.01. 1:00 0.8° C bewölkt
Ortszeit Temperatur Wetter
Mi, 01.02. 0:00 -7.4° C wolkenlos
Di, 31.01. 23:00 -7.2° C wolkenlos
Di, 31.01. 22:00 -7.0° C wolkenlos
Di, 31.01. 21:00 -7.5° C wolkenlos
Di, 31.01. 20:00 -4.7° C wolkenlos
Di, 31.01. 19:00 -3.1° C leicht bewölkt
Ortszeit Relative Feuchte Sichtweite
Di, 31.01. 19:00 96% 50 km
Di, 31.01. 13:00 76% 45 km
Di, 31.01. 7:00 83% 50 km
Di, 31.01. 1:00 70% 50 km
Mo, 30.01. 19:00 74% 50 km
Mo, 30.01. 13:00 84% 50 km
Mo, 30.01. 7:00 99% 2.1 km
Mo, 30.01. 1:00 99% 16 km
Ortszeit Relative Feuchte Sichtweite
Mi, 01.02. 0:00 92% 50 km
Di, 31.01. 23:00 94% 50 km
Di, 31.01. 22:00 95% 50 km
Di, 31.01. 21:00 95% 50 km
Di, 31.01. 20:00 98% 50 km
Di, 31.01. 19:00 96% 50 km
Ortszeit Niederschlagsmenge Niederschlagsart
Di, 31.01. 19:00 0.0 l/m2 in 12 Std. -
Di, 31.01. 13:00 0.0 l/m2 in 1 Std. -
Di, 31.01. 7:00 0.0 l/m2 in 12 Std. -
Di, 31.01. 1:00 keine Meldung -
Mo, 30.01. 19:00 0.1 l/m2 in 12 Std. -
Mo, 30.01. 13:00 0.0 l/m2 in 1 Std. Schneeschauer
Mo, 30.01. 7:00 0.9 l/m2 in 12 Std. -
Mo, 30.01. 1:00 keine Meldung -
Ortszeit Niederschlagsmenge Niederschlagsart
Mi, 01.02. 0:00 0.0 l/m2 in 1 Std. -
Di, 31.01. 23:00 0.0 l/m2 in 1 Std. -
Di, 31.01. 22:00 0.0 l/m2 in 1 Std. -
Di, 31.01. 21:00 0.0 l/m2 in 1 Std. -
Di, 31.01. 20:00 0.0 l/m2 in 1 Std. -
Di, 31.01. 19:00 0.0 l/m2 in 1 Std. -
Ortszeit Stärke Spitze Richtung
km/h Bft. km/h Grad Sektor
Di, 31.01. 19:00 7 2 - 280° W
Di, 31.01. 13:00 4 1 11 280° W
Di, 31.01. 7:00 11 2 25 310° NW
Di, 31.01. 1:00 18 3 - 310° NW
Mo, 30.01. 19:00 24 4 - 330° NW
Mo, 30.01. 13:00 18 3 50 340° N
Mo, 30.01. 7:00 9 2 - 340° N
Mo, 30.01. 1:00 18 3 - 230° SW
Ortszeit Stärke Spitze Richtung
km/h Bft. km/h Grad Sektor
Mi, 01.02. 0:00 11 2 18 330° NW
Di, 31.01. 23:00 11 2 18 310° NW
Di, 31.01. 22:00 7 2 14 320° NW
Di, 31.01. 21:00 9 2 15 340° N
Di, 31.01. 20:00 9 2 15 300° NW
Di, 31.01. 19:00 7 2 18 280° W
Ortszeit Untergrenze Bedeckung Gattung
total tief tief mittel hoch
Di, 31.01. 19:00 120 m 3/8 3/8 - - -
Di, 31.01. 13:00 - 0/8 0/8 - - -
Di, 31.01. 7:00 - 0/8 0/8 - - -
Di, 31.01. 1:00 - 0/8 0/8 - - -
Mo, 30.01. 19:00 - 0/8 0/8 - - -
Mo, 30.01. 13:00 480 m 8/8 8/8 - - -
Mo, 30.01. 7:00 330 m 8/8 8/8 - - -
Mo, 30.01. 1:00 210 m 7/8 6/8 - - -
Ortszeit Bedeckungsgrad in Achtel und Wolkenuntergrenze
Mi, 01.02. 0:00 keine Wolken
Di, 31.01. 23:00 keine Wolken
Di, 31.01. 22:00 keine Wolken
Di, 31.01. 21:00 keine Wolken
Di, 31.01. 20:00 keine Wolken
Di, 31.01. 19:00 3(120m) 3(960m)
Ortszeit Luftdruck NN (hPa) Tendenz (hPa in 3 Std.)
Di, 31.01. 19:00 988 + 0,1
Di, 31.01. 13:00 989 + 0,1
Di, 31.01. 7:00 987 + 0,4
Di, 31.01. 1:00 986 + 2,6
Mo, 30.01. 19:00 980 + 3,5
Mo, 30.01. 13:00 972 + 3,1
Mo, 30.01. 7:00 967 - 1,4
Mo, 30.01. 1:00 971 - 3,6
Ortszeit Luftdruck NN (hPa) Tendenz (hPa in 3 Std.)
Mi, 01.02. 0:00 989 + 0,4
Di, 31.01. 23:00 989 + 0,4
Di, 31.01. 22:00 989 + 0,2
Di, 31.01. 21:00 988 - 0,1
Di, 31.01. 20:00 988 0,0
Di, 31.01. 19:00 988 + 0,1
Ortszeit Schneehöhe (cm)
Di, 31.01. 19:00 -
Di, 31.01. 13:00 -
Di, 31.01. 7:00 -
Di, 31.01. 1:00 -
Mo, 30.01. 19:00 -
Mo, 30.01. 13:00 -
Mo, 30.01. 7:00 -
Mo, 30.01. 1:00 -
Ortszeit Schneehöhe (cm)
Mi, 01.02. 0:00 -
Di, 31.01. 23:00 -
Di, 31.01. 22:00 -
Di, 31.01. 21:00 -
Di, 31.01. 20:00 -
Di, 31.01. 19:00 -
Link zu dieser Seite / Seite empfehlen

Das Wetter in ...